Time;durP1;ratioP1;P1;durP2;ratioP2;P2;SDS_P1;SDS_P2;PMS_P1;PMS_P2;Temp;Humidity;BMP_temperature;BMP_pressure;BME280_temperature;BME280_humidity;BME280_pressure;Samples;Min_cycle;Max_cycle;Signal;HPM_P1;HPM_P2
2023/10/23 00:00:48;;;;;;;2.38;2.17;;;19.10;55.30;;;;;;5057208;28;20616;-80
2023/10/23 00:03:15;;;;;;;3.03;2.10;;;19.10;55.30;;;;;;5057041;28;20213;-80
2023/10/23 00:05:44;;;;;;;2.42;2.22;;;19.10;55.30;;;;;;5057361;28;20198;-80
2023/10/23 00:08:11;;;;;;;2.97;2.25;;;19.10;55.30;;;;;;5057521;28;20210;-80
2023/10/23 00:10:38;;;;;;;2.00;1.90;;;19.10;55.40;;;;;;5057153;28;20261;-80
2023/10/23 00:13:06;;;;;;;2.40;2.20;;;19.10;55.40;;;;;;5041090;28;20696;-80
2023/10/23 00:15:33;;;;;;;2.38;2.17;;;19.00;55.40;;;;;;5057095;28;20202;-80
2023/10/23 00:18:01;;;;;;;2.67;2.30;;;19.00;55.50;;;;;;5057431;28;20248;-80
2023/10/23 00:20:28;;;;;;;2.38;2.17;;;19.00;55.50;;;;;;5057080;28;20272;-80
2023/10/23 00:22:56;;;;;;;2.10;2.00;;;19.00;55.50;;;;;;5041245;28;20226;-80
2023/10/23 00:25:23;;;;;;;2.20;2.00;;;19.00;55.40;;;;;;5057111;28;20701;-80
2023/10/23 00:27:50;;;;;;;2.30;2.10;;;19.00;55.50;;;;;;5057077;28;20201;-80
2023/10/23 00:30:17;;;;;;;2.30;2.10;;;19.00;55.50;;;;;;5057375;28;20220;-80
2023/10/23 00:32:45;;;;;;;2.30;2.10;;;18.90;55.40;;;;;;5059828;28;20230;-81
2023/10/23 00:35:13;;;;;;;2.30;2.10;;;18.90;55.30;;;;;;5059807;28;20273;-81
2023/10/23 00:37:40;;;;;;;2.90;2.30;;;18.90;55.40;;;;;;5076627;28;20237;-81
2023/10/23 00:40:11;;;;;;;1.98;1.80;;;18.90;55.50;;;;;;5075289;28;20219;-81
2023/10/23 00:42:38;;;;;;;2.53;2.08;;;18.90;55.40;;;;;;5064038;28;20199;-81
2023/10/23 00:45:06;;;;;;;2.22;2.03;;;18.90;55.60;;;;;;5056274;28;20210;-81
2023/10/23 00:47:33;;;;;;;2.40;2.20;;;18.80;55.50;;;;;;5060539;28;20586;-81
2023/10/23 00:50:00;;;;;;;2.17;1.95;;;18.90;55.40;;;;;;5061245;28;20317;-81
2023/10/23 00:52:28;;;;;;;2.88;2.13;;;18.90;55.50;;;;;;5044060;28;20275;-81
2023/10/23 00:54:54;;;;;;;1.88;1.70;;;18.80;55.30;;;;;;5060867;28;20215;-81
2023/10/23 00:57:23;;;;;;;2.33;2.03;;;18.80;55.50;;;;;;5060096;28;20226;-81
2023/10/23 00:59:50;;;;;;;2.20;2.00;;;18.80;55.50;;;;;;5059671;28;20219;-81
2023/10/23 01:02:17;;;;;;;2.20;1.98;;;18.80;55.50;;;;;;5060576;28;20202;-81
2023/10/23 01:04:44;;;;;;;2.17;1.98;;;18.80;55.50;;;;;;5059345;28;20249;-81
2023/10/23 01:07:11;;;;;;;2.58;2.15;;;18.80;55.50;;;;;;5060135;28;20206;-81
2023/10/23 01:09:38;;;;;;;2.05;1.85;;;18.70;55.10;;;;;;5059552;28;20218;-81
2023/10/23 01:12:06;;;;;;;2.10;2.00;;;18.70;55.30;;;;;;5059442;28;20195;-81
2023/10/23 01:14:35;;;;;;;2.50;2.30;;;18.70;55.30;;;;;;5058789;28;20197;-81
2023/10/23 01:17:02;;;;;;;2.10;2.00;;;18.70;55.30;;;;;;5056445;28;20305;-81
2023/10/23 01:19:29;;;;;;;3.42;2.28;;;18.70;55.20;;;;;;5056326;28;20313;-81
2023/10/23 01:21:56;;;;;;;3.10;2.00;;;18.70;55.20;;;;;;5056069;28;20199;-81
2023/10/23 01:24:23;;;;;;;2.90;2.38;;;18.70;55.30;;;;;;5056151;28;20214;-81
2023/10/23 01:26:51;;;;;;;2.58;2.38;;;18.70;55.30;;;;;;5057076;28;20209;-81
2023/10/23 01:29:19;;;;;;;2.38;2.17;;;18.70;55.10;;;;;;5056668;28;20219;-81
2023/10/23 01:31:46;;;;;;;2.28;2.03;;;18.70;55.40;;;;;;5056384;28;20191;-81
2023/10/23 01:34:13;;;;;;;2.35;2.15;;;18.60;55.40;;;;;;5040123;28;20203;-81
2023/10/23 01:36:40;;;;;;;2.28;2.08;;;18.60;55.50;;;;;;5056723;28;20275;-81
2023/10/23 01:39:07;;;;;;;2.45;1.92;;;18.60;55.40;;;;;;5055878;28;20234;-81
2023/10/23 01:41:34;;;;;;;2.58;2.00;;;18.60;55.50;;;;;;5055928;28;20290;-81
2023/10/23 01:44:03;;;;;;;3.63;2.20;;;18.60;55.50;;;;;;5055910;28;20250;-81
2023/10/23 01:46:30;;;;;;;2.47;2.28;;;18.60;55.50;;;;;;5056626;28;20229;-81
2023/10/23 01:48:58;;;;;;;2.58;2.38;;;18.60;55.50;;;;;;5056319;28;20187;-81
2023/10/23 01:51:25;;;;;;;2.88;2.13;;;18.60;55.40;;;;;;5056713;28;20642;-80
2023/10/23 01:53:53;;;;;;;2.20;2.00;;;18.50;55.40;;;;;;5056009;28;20761;-81
2023/10/23 01:56:20;;;;;;;2.72;2.33;;;18.50;55.40;;;;;;5057779;28;20539;-81
2023/10/23 01:58:47;;;;;;;2.47;2.28;;;18.50;55.30;;;;;;5059425;28;20230;-81
2023/10/23 02:01:33;;;;;;;2.22;2.03;;;18.50;55.40;;;;;;5059683;28;20268;-81
2023/10/23 02:04:00;;;;;;;2.65;2.40;;;18.50;55.30;;;;;;5056994;28;20225;-81
2023/10/23 02:06:27;;;;;;;2.72;2.28;;;18.50;55.50;;;;;;5062415;28;20199;-81
2023/10/23 02:08:54;;;;;;;2.47;2.28;;;18.50;55.50;;;;;;5059568;28;20233;-81
2023/10/23 02:11:21;;;;;;;2.70;2.50;;;18.50;55.30;;;;;;5059103;28;20222;-81
2023/10/23 02:13:48;;;;;;;2.33;2.13;;;18.50;55.30;;;;;;5060182;28;20512;-81
2023/10/23 02:16:15;;;;;;;2.85;2.65;;;18.50;55.40;;;;;;5061454;28;20191;-81
2023/10/23 02:18:45;;;;;;;2.63;2.15;;;18.50;55.30;;;;;;5059411;28;20209;-81
2023/10/23 02:21:12;;;;;;;2.63;2.42;;;18.50;55.30;;;;;;5059217;28;20653;-81
2023/10/23 02:23:40;;;;;;;2.40;2.20;;;18.40;55.20;;;;;;5059322;28;20534;-81
2023/10/23 02:26:07;;;;;;;2.35;2.15;;;18.40;55.30;;;;;;5059042;28;20218;-81
2023/10/23 02:28:34;;;;;;;2.45;2.25;;;18.40;55.30;;;;;;5059416;28;20252;-81
2023/10/23 02:31:03;;;;;;;2.85;2.55;;;18.40;55.40;;;;;;5042880;28;20215;-81
2023/10/23 02:33:31;;;;;;;2.95;2.20;;;18.40;55.40;;;;;;5059523;28;20688;-81
2023/10/23 02:36:00;;;;;;;2.35;2.15;;;18.40;55.20;;;;;;5059936;28;20266;-81
2023/10/23 02:38:27;;;;;;;2.60;2.40;;;18.40;55.30;;;;;;5060531;28;20226;-81
2023/10/23 02:40:54;;;;;;;2.78;2.30;;;18.40;55.30;;;;;;5060491;28;20575;-81
2023/10/23 02:43:21;;;;;;;3.25;2.53;;;18.30;55.20;;;;;;5060335;28;20316;-81
2023/10/23 02:45:48;;;;;;;2.60;2.40;;;18.40;55.40;;;;;;5059483;28;20229;-81
2023/10/23 02:48:16;;;;;;;3.83;2.78;;;18.30;55.20;;;;;;5059881;28;20207;-81
2023/10/23 02:50:43;;;;;;;3.60;2.83;;;18.30;55.40;;;;;;5059541;28;20264;-81
2023/10/23 02:53:12;;;;;;;4.32;2.67;;;18.30;55.10;;;;;;5057963;28;20282;-81
2023/10/23 02:55:41;;;;;;;3.95;2.60;;;18.30;55.30;;;;;;5058146;28;20202;-81
2023/10/23 02:58:08;;;;;;;3.05;2.75;;;18.30;55.00;;;;;;5057916;28;20289;-81
2023/10/23 03:00:35;;;;;;;3.05;2.40;;;18.30;55.10;;;;;;5058398;28;20589;-81
2023/10/23 03:03:02;;;;;;;2.50;2.22;;;18.30;55.20;;;;;;5058944;28;20252;-81
2023/10/23 03:05:29;;;;;;;5.05;2.97;;;18.30;55.10;;;;;;5058240;28;20226;-81
2023/10/23 03:07:56;;;;;;;3.65;2.65;;;18.30;55.00;;;;;;5057098;28;20244;-81
2023/10/23 03:10:26;;;;;;;4.13;2.67;;;18.20;55.00;;;;;;5058068;28;20248;-81
2023/10/23 03:12:53;;;;;;;3.15;2.70;;;18.20;54.30;;;;;;5057902;28;20630;-81
2023/10/23 03:15:21;;;;;;;2.63;2.33;;;18.20;55.10;;;;;;5058388;28;20193;-81
2023/10/23 03:17:49;;;;;;;3.05;2.47;;;18.20;54.80;;;;;;5058396;28;20197;-81
2023/10/23 03:20:16;;;;;;;3.90;3.00;;;18.20;55.00;;;;;;5057894;28;20237;-81
2023/10/23 03:22:43;;;;;;;2.95;2.47;;;18.10;55.00;;;;;;5058189;28;20203;-81
2023/10/23 03:25:11;;;;;;;2.55;2.35;;;18.10;55.10;;;;;;5057906;28;20214;-81
2023/10/23 03:27:41;;;;;;;3.17;2.65;;;18.10;55.20;;;;;;5058148;28;20541;-81
2023/10/23 03:30:09;;;;;;;3.08;2.65;;;18.10;55.00;;;;;;5057943;28;20218;-81
2023/10/23 03:32:36;;;;;;;3.88;2.83;;;18.10;55.00;;;;;;5057745;28;20191;-81
2023/10/23 03:35:04;;;;;;;3.08;2.42;;;18.20;55.10;;;;;;5057642;28;20564;-81
2023/10/23 03:37:31;;;;;;;3.00;2.70;;;18.20;54.90;;;;;;5058254;28;20195;-81
2023/10/23 03:39:58;;;;;;;3.22;2.65;;;18.20;54.80;;;;;;5057514;28;20222;-81
2023/10/23 03:42:25;;;;;;;2.78;2.50;;;18.20;54.70;;;;;;5057629;28;20644;-81
2023/10/23 03:44:53;;;;;;;3.55;2.42;;;18.30;54.80;;;;;;5056987;28;20215;-81
2023/10/23 03:47:21;;;;;;;2.92;2.63;;;18.20;54.60;;;;;;5057391;28;20203;-81
2023/10/23 03:49:48;;;;;;;2.90;2.60;;;18.20;54.60;;;;;;5057307;28;20215;-81
2023/10/23 03:52:15;;;;;;;2.90;2.60;;;18.20;54.50;;;;;;5057266;28;20508;-81
2023/10/23 03:54:42;;;;;;;2.88;2.50;;;18.20;54.50;;;;;;5057462;28;20203;-81
2023/10/23 03:57:09;;;;;;;2.85;2.55;;;18.20;54.30;;;;;;5057541;28;20546;-81
2023/10/23 03:59:36;;;;;;;3.53;2.63;;;18.20;54.30;;;;;;5057566;28;20748;-81
2023/10/23 04:02:05;;;;;;;2.72;2.30;;;18.20;54.40;;;;;;5057871;28;20199;-81
2023/10/23 04:04:32;;;;;;;3.08;2.40;;;18.20;54.40;;;;;;5058564;28;20641;-81
2023/10/23 04:06:59;;;;;;;2.53;2.30;;;18.20;54.20;;;;;;5070787;22;20266;-81
2023/10/23 04:09:29;;;;;;;3.13;2.28;;;18.20;54.00;;;;;;5037066;28;20219;-81
2023/10/23 04:11:56;;;;;;;2.92;2.42;;;18.20;54.00;;;;;;5036910;28;20191;-81
2023/10/23 04:14:23;;;;;;;2.50;2.30;;;18.20;54.10;;;;;;5036905;28;20195;-81
2023/10/23 04:16:50;;;;;;;3.90;2.40;;;18.20;54.20;;;;;;5036649;28;20250;-81
2023/10/23 04:19:19;;;;;;;2.55;2.35;;;18.20;54.20;;;;;;5020603;28;20273;-81
2023/10/23 04:21:46;;;;;;;2.90;2.20;;;18.20;54.50;;;;;;5036899;28;20196;-81
2023/10/23 04:24:13;;;;;;;2.40;2.20;;;18.10;54.50;;;;;;5037303;28;20533;-81
2023/10/23 04:26:40;;;;;;;2.42;2.22;;;18.20;54.70;;;;;;5036681;28;20215;-81
2023/10/23 04:29:08;;;;;;;2.88;2.45;;;18.20;54.70;;;;;;5036424;28;20217;-81
2023/10/23 04:31:36;;;;;;;2.90;2.42;;;18.20;54.50;;;;;;5036747;28;20222;-81
2023/10/23 04:34:02;;;;;;;2.40;2.20;;;18.20;54.40;;;;;;5054544;28;20199;-81
2023/10/23 04:36:31;;;;;;;3.42;2.58;;;18.30;54.60;;;;;;5036865;28;20245;-81
2023/10/23 04:38:58;;;;;;;2.85;2.22;;;18.20;54.40;;;;;;5036363;28;20203;-81
2023/10/23 04:41:25;;;;;;;2.80;2.50;;;18.30;54.20;;;;;;5036356;28;20307;-81
2023/10/23 04:43:52;;;;;;;3.25;2.33;;;18.30;54.40;;;;;;5036542;28;20195;-81
2023/10/23 04:46:20;;;;;;;3.13;2.58;;;18.30;54.60;;;;;;5036229;28;20211;-81
2023/10/23 04:48:47;;;;;;;3.38;2.45;;;18.30;54.50;;;;;;5020141;28;20207;-81
2023/10/23 04:51:14;;;;;;;2.70;2.50;;;18.30;54.40;;;;;;5036595;28;20265;-81
2023/10/23 04:53:43;;;;;;;2.50;2.30;;;18.30;54.40;;;;;;5036293;28;20203;-81
2023/10/23 04:56:10;;;;;;;2.47;2.28;;;18.30;54.40;;;;;;5036227;28;20253;-81
2023/10/23 04:58:38;;;;;;;2.35;2.15;;;18.30;54.40;;;;;;5036254;28;20219;-81
2023/10/23 05:01:04;;;;;;;2.80;2.50;;;18.30;54.20;;;;;;5036192;28;20697;-80
2023/10/23 05:03:32;;;;;;;3.95;2.55;;;18.30;54.20;;;;;;5036040;28;20203;-80
2023/10/23 05:05:59;;;;;;;2.40;2.20;;;18.30;54.30;;;;;;5036183;28;20273;-80
2023/10/23 05:08:26;;;;;;;2.70;2.50;;;18.30;54.10;;;;;;5036096;28;20211;-80
2023/10/23 05:10:57;;;;;;;2.78;2.53;;;18.20;54.10;;;;;;5036267;28;20266;-80
2023/10/23 05:13:25;;;;;;;2.42;2.22;;;18.30;54.20;;;;;;5035982;28;20673;-80
2023/10/23 05:15:52;;;;;;;2.25;2.05;;;18.20;54.20;;;;;;5036613;28;20226;-80
2023/10/23 05:18:18;;;;;;;2.67;2.40;;;18.30;54.30;;;;;;5020027;28;20719;-80
2023/10/23 05:20:46;;;;;;;2.70;2.50;;;18.30;54.20;;;;;;5020114;28;20682;-80
2023/10/23 05:23:13;;;;;;;2.45;2.22;;;18.30;54.40;;;;;;5036968;28;20195;-80
2023/10/23 05:25:40;;;;;;;2.28;2.08;;;18.30;54.10;;;;;;5036580;28;20246;-80
2023/10/23 05:28:08;;;;;;;3.10;2.53;;;18.30;53.80;;;;;;5036012;28;20299;-80
2023/10/23 05:30:36;;;;;;;2.40;2.20;;;18.20;54.00;;;;;;5036964;28;20219;-80
2023/10/23 05:33:03;;;;;;;2.45;2.10;;;18.30;54.10;;;;;;5040848;28;20230;-80
2023/10/23 05:35:30;;;;;;;2.47;2.28;;;18.30;54.30;;;;;;5040605;28;20191;-80
2023/10/23 05:37:57;;;;;;;2.85;2.10;;;18.30;54.00;;;;;;5023732;28;20278;-80
2023/10/23 05:40:24;;;;;;;2.30;2.03;;;18.30;54.20;;;;;;5040694;28;20313;-80
2023/10/23 05:42:51;;;;;;;2.42;2.22;;;18.30;53.90;;;;;;5039993;28;20604;-80
2023/10/23 05:45:20;;;;;;;2.58;2.38;;;18.30;54.10;;;;;;5040148;28;20214;-80
2023/10/23 05:47:47;;;;;;;2.50;2.30;;;18.30;54.30;;;;;;5040301;28;20195;-80
2023/10/23 05:50:14;;;;;;;2.53;2.33;;;18.30;53.70;;;;;;5044654;28;20211;-80
2023/10/23 05:52:41;;;;;;;2.92;2.40;;;18.30;54.00;;;;;;5024851;28;20230;-80
2023/10/23 05:55:09;;;;;;;2.40;2.10;;;18.30;53.90;;;;;;5023577;28;20207;-80
2023/10/23 05:57:36;;;;;;;2.35;2.15;;;18.30;53.90;;;;;;5039491;28;20294;-80
2023/10/23 06:00:04;;;;;;;2.63;2.10;;;18.30;53.80;;;;;;5039536;28;20246;-80
2023/10/23 06:02:35;;;;;;;2.58;2.35;;;18.30;53.70;;;;;;5057720;28;20188;-80
2023/10/23 06:05:03;;;;;;;2.33;2.10;;;18.30;53.80;;;;;;5023031;28;20206;-80
2023/10/23 06:07:31;;;;;;;3.15;2.38;;;18.30;53.70;;;;;;5039101;28;20288;-80
2023/10/23 06:09:59;;;;;;;2.53;2.30;;;18.30;53.30;;;;;;5039019;28;20227;-80
2023/10/23 06:12:26;;;;;;;2.33;2.13;;;18.30;53.20;;;;;;5023423;28;20245;-80
2023/10/23 06:14:53;;;;;;;2.88;2.30;;;18.30;53.50;;;;;;5039403;28;20377;-80
2023/10/23 06:17:20;;;;;;;2.40;2.20;;;18.30;53.30;;;;;;5038810;28;20646;-80
2023/10/23 06:19:49;;;;;;;2.38;2.13;;;18.30;53.50;;;;;;5039418;28;20228;-80
2023/10/23 06:22:16;;;;;;;2.88;2.20;;;18.30;53.20;;;;;;5039175;28;20655;-80
2023/10/23 06:24:45;;;;;;;2.40;2.20;;;18.30;53.30;;;;;;5022401;28;20202;-80
2023/10/23 06:27:12;;;;;;;2.40;1.98;;;18.30;53.40;;;;;;5039151;28;20218;-80
2023/10/23 06:29:39;;;;;;;2.50;2.30;;;18.40;53.30;;;;;;5039751;28;20223;-80
2023/10/23 06:32:07;;;;;;;2.50;2.30;;;18.40;53.30;;;;;;5038985;28;20537;-80
2023/10/23 06:34:34;;;;;;;2.30;2.10;;;18.40;53.30;;;;;;5039238;28;20206;-80
2023/10/23 06:37:03;;;;;;;2.50;2.30;;;18.40;53.10;;;;;;5039612;28;20269;-80
2023/10/23 06:39:30;;;;;;;2.17;1.98;;;18.40;53.30;;;;;;5022051;28;20211;-80
2023/10/23 06:41:57;;;;;;;2.13;1.98;;;18.50;53.10;;;;;;5038313;28;20234;-80
2023/10/23 06:44:24;;;;;;;2.80;2.50;;;18.50;53.30;;;;;;5038789;28;20569;-80
2023/10/23 06:46:52;;;;;;;2.38;2.17;;;18.50;53.00;;;;;;5038998;28;20226;-80
2023/10/23 06:49:22;;;;;;;2.42;2.22;;;18.50;53.00;;;;;;5038922;28;20230;-80
2023/10/23 06:51:49;;;;;;;2.70;2.42;;;18.60;52.70;;;;;;5038433;28;20199;-80
2023/10/23 06:54:19;;;;;;;2.55;2.35;;;18.60;52.90;;;;;;5038460;28;20252;-80
2023/10/23 06:56:47;;;;;;;2.28;2.08;;;18.70;52.50;;;;;;5022941;28;20195;-80
2023/10/23 06:59:14;;;;;;;2.63;2.40;;;18.70;52.50;;;;;;5038107;28;20200;-80
2023/10/23 07:01:41;;;;;;;2.58;2.33;;;18.70;52.30;;;;;;5038316;28;20282;-80
2023/10/23 07:04:08;;;;;;;3.35;2.35;;;18.70;52.40;;;;;;5038269;28;20543;-80
2023/10/23 07:06:35;;;;;;;2.70;2.40;;;18.70;52.30;;;;;;5037866;28;20642;-80
2023/10/23 07:09:02;;;;;;;2.30;2.10;;;18.70;52.40;;;;;;5037958;28;20233;-80
2023/10/23 07:11:31;;;;;;;2.58;2.08;;;18.80;52.70;;;;;;5038030;28;20272;-80
2023/10/23 07:13:58;;;;;;;2.40;1.98;;;18.70;52.50;;;;;;5037748;28;20199;-80
2023/10/23 07:16:25;;;;;;;2.55;2.35;;;18.80;52.50;;;;;;5055656;28;20562;-80
2023/10/23 07:18:52;;;;;;;2.65;2.45;;;18.80;52.50;;;;;;5038254;28;20191;-80
2023/10/23 07:21:23;;;;;;;2.38;2.17;;;18.80;52.40;;;;;;5037814;28;20223;-80
2023/10/23 07:23:50;;;;;;;2.40;2.20;;;18.80;52.40;;;;;;5037542;28;20281;-80
2023/10/23 07:26:17;;;;;;;2.53;2.33;;;18.80;52.00;;;;;;5037723;28;20219;-80
2023/10/23 07:28:45;;;;;;;3.03;2.20;;;18.80;52.20;;;;;;5037711;28;20199;-80
2023/10/23 07:31:13;;;;;;;2.65;2.45;;;18.90;52.50;;;;;;5037566;28;20251;-80
2023/10/23 07:33:40;;;;;;;2.35;2.15;;;18.90;52.50;;;;;;5037581;28;20196;-80
2023/10/23 07:36:07;;;;;;;2.95;2.20;;;18.90;52.30;;;;;;5037822;28;20183;-80
2023/10/23 07:38:36;;;;;;;2.40;2.20;;;18.90;52.30;;;;;;5037359;28;20222;-80
2023/10/23 07:41:03;;;;;;;2.45;2.20;;;18.90;52.10;;;;;;5037335;28;20238;-80
2023/10/23 07:43:30;;;;;;;2.78;2.22;;;19.00;52.30;;;;;;5038010;28;20257;-80
2023/10/23 07:45:59;;;;;;;2.55;2.35;;;19.00;52.20;;;;;;5037381;28;20219;-80
2023/10/23 07:48:26;;;;;;;2.90;2.35;;;19.00;52.10;;;;;;5037550;28;20210;-80
2023/10/23 07:50:53;;;;;;;2.55;2.30;;;19.00;52.10;;;;;;5037285;28;20223;-80
2023/10/23 07:53:20;;;;;;;2.50;2.22;;;19.00;51.80;;;;;;5037152;28;20210;-80
2023/10/23 07:55:47;;;;;;;2.85;2.45;;;19.10;51.80;;;;;;5037682;28;20249;-80
2023/10/23 07:58:14;;;;;;;2.45;2.25;;;19.10;51.90;;;;;;5037257;28;20253;-80
2023/10/23 08:00:41;;;;;;;2.50;2.30;;;19.20;52.00;;;;;;5037057;28;20223;-80
2023/10/23 08:03:09;;;;;;;3.17;2.33;;;19.20;51.90;;;;;;5024089;28;20309;-81
2023/10/23 08:05:36;;;;;;;2.45;2.25;;;19.20;51.90;;;;;;5037585;28;20558;-81
2023/10/23 08:08:04;;;;;;;2.25;2.05;;;19.20;51.70;;;;;;5037168;28;20239;-81
2023/10/23 08:10:31;;;;;;;2.33;2.13;;;19.30;51.80;;;;;;5038153;28;20704;-81
2023/10/23 08:12:58;;;;;;;2.38;2.17;;;19.30;51.90;;;;;;5032668;28;20188;-81
2023/10/23 08:15:26;;;;;;;2.72;2.30;;;19.30;51.70;;;;;;5061867;28;20186;-81
2023/10/23 08:17:52;;;;;;;2.45;2.20;;;19.30;51.60;;;;;;5061355;28;20193;-81
2023/10/23 08:20:21;;;;;;;2.20;2.00;;;19.30;51.80;;;;;;5058821;28;20219;-81
2023/10/23 08:22:49;;;;;;;3.20;2.55;;;19.30;51.80;;;;;;5055557;28;20191;-81
2023/10/23 08:25:17;;;;;;;3.05;2.30;;;19.40;52.30;;;;;;5037253;28;20218;-81
2023/10/23 08:27:43;;;;;;;2.78;2.55;;;19.40;51.40;;;;;;5037404;28;20250;-81
2023/10/23 08:30:12;;;;;;;2.78;2.58;;;19.40;51.30;;;;;;5037350;28;20223;-81
2023/10/23 08:32:39;;;;;;;2.97;2.50;;;19.40;51.40;;;;;;5036510;28;20282;-81
2023/10/23 08:35:07;;;;;;;2.83;2.40;;;19.50;51.20;;;;;;5036613;28;20195;-81
2023/10/23 08:37:35;;;;;;;4.10;2.42;;;19.40;51.10;;;;;;5036996;28;20187;-81
2023/10/23 08:40:06;;;;;;;3.70;2.33;;;19.50;51.20;;;;;;5054084;28;20207;-81
2023/10/23 08:42:33;;;;;;;3.65;2.30;;;19.40;51.00;;;;;;5036602;28;20195;-81
2023/10/23 08:45:00;;;;;;;2.63;2.38;;;19.50;51.10;;;;;;5036173;28;20627;-81
2023/10/23 08:47:27;;;;;;;2.55;2.35;;;19.50;51.10;;;;;;5036942;28;20331;-81
2023/10/23 08:49:59;;;;;;;3.50;2.35;;;19.50;51.20;;;;;;5019389;28;20215;-81
2023/10/23 08:52:26;;;;;;;2.60;2.22;;;19.50;51.20;;;;;;5036210;28;20207;-81
2023/10/23 08:54:55;;;;;;;2.33;2.08;;;19.50;51.20;;;;;;5036267;28;20199;-81
2023/10/23 08:57:22;;;;;;;2.35;2.10;;;19.60;51.30;;;;;;5019681;28;20193;-81
2023/10/23 08:59:49;;;;;;;2.50;2.30;;;19.60;51.30;;;;;;5054074;28;20586;-81
2023/10/23 09:02:16;;;;;;;2.47;2.28;;;19.60;51.10;;;;;;5036362;28;20265;-81
2023/10/23 09:04:43;;;;;;;2.58;2.38;;;19.70;51.20;;;;;;5036838;28;20199;-81
2023/10/23 09:07:10;;;;;;;2.50;2.30;;;19.70;51.00;;;;;;5056978;28;20599;-81
2023/10/23 09:09:37;;;;;;;2.60;2.35;;;19.80;51.00;;;;;;5040026;28;20219;-81
2023/10/23 09:12:07;;;;;;;2.50;2.30;;;19.80;50.90;;;;;;5040280;28;20668;-81
2023/10/23 09:14:35;;;;;;;3.08;2.47;;;19.80;50.80;;;;;;5039979;28;20285;-81
2023/10/23 09:17:03;;;;;;;3.03;2.72;;;19.90;50.60;;;;;;5039898;28;20195;-81
2023/10/23 09:19:34;;;;;;;3.65;2.95;;;19.90;50.50;;;;;;5040012;28;20249;-81
2023/10/23 09:22:01;;;;;;;4.75;2.90;;;19.90;50.80;;;;;;5039901;28;20206;-81
2023/10/23 09:24:28;;;;;;;3.28;2.50;;;19.90;50.60;;;;;;5040046;28;20196;-81
2023/10/23 09:26:55;;;;;;;2.75;2.55;;;19.90;50.50;;;;;;5043088;28;20215;-81
2023/10/23 09:29:23;;;;;;;3.42;2.65;;;19.90;50.70;;;;;;5026316;28;20215;-81
2023/10/23 09:31:51;;;;;;;2.88;2.58;;;19.90;50.60;;;;;;5063624;28;20190;-81
2023/10/23 09:34:18;;;;;;;3.65;2.63;;;19.90;50.70;;;;;;5043432;28;20195;-81
2023/10/23 09:36:46;;;;;;;3.13;2.67;;;19.90;51.30;;;;;;5040692;28;20230;-81
2023/10/23 09:39:13;;;;;;;3.20;2.70;;;20.00;50.80;;;;;;5041274;28;20245;-81
2023/10/23 09:41:41;;;;;;;3.33;2.60;;;20.00;50.70;;;;;;5040475;28;20200;-80
2023/10/23 09:44:08;;;;;;;2.55;2.35;;;19.90;50.80;;;;;;5024485;28;20231;-80
2023/10/23 09:46:37;;;;;;;3.00;2.65;;;20.00;50.80;;;;;;5039431;28;20284;-80
2023/10/23 09:49:04;;;;;;;3.35;2.50;;;20.00;50.80;;;;;;5039583;28;20206;-80
2023/10/23 09:51:36;;;;;;;3.67;2.50;;;20.00;50.80;;;;;;5023188;28;20203;-80
2023/10/23 09:54:05;;;;;;;3.08;2.58;;;20.00;50.90;;;;;;5039493;28;20283;-80
2023/10/23 09:56:32;;;;;;;2.97;2.50;;;20.00;50.60;;;;;;5039131;28;20203;-80
2023/10/23 09:59:00;;;;;;;3.13;2.40;;;20.00;50.70;;;;;;5040033;28;20200;-80
2023/10/23 10:01:31;;;;;;;3.17;2.55;;;20.00;50.80;;;;;;5039024;28;20272;-80
2023/10/23 10:04:01;;;;;;;3.15;2.60;;;20.00;50.90;;;;;;5039176;28;20604;-80
2023/10/23 10:06:29;;;;;;;2.65;2.40;;;20.00;50.90;;;;;;5040229;28;20194;-80
2023/10/23 10:08:56;;;;;;;3.00;2.40;;;20.00;50.70;;;;;;5182458;22;20597;-81
2023/10/23 10:11:25;;;;;;;2.97;2.40;;;20.00;50.70;;;;;;5036446;28;20200;-80
2023/10/23 10:13:52;;;;;;;2.85;2.58;;;20.00;50.70;;;;;;5037334;28;20265;-80
2023/10/23 10:16:20;;;;;;;4.25;2.67;;;20.10;50.70;;;;;;5036435;28;20667;-80
2023/10/23 10:18:47;;;;;;;5.00;3.08;;;20.10;50.80;;;;;;5036813;28;20196;-80
2023/10/23 10:21:17;;;;;;;3.97;2.92;;;20.10;50.80;;;;;;5020348;28;20220;-80
2023/10/23 10:23:44;;;;;;;3.25;2.40;;;20.10;50.80;;;;;;5038659;28;20196;-80
2023/10/23 10:26:11;;;;;;;3.45;2.90;;;20.10;50.60;;;;;;5038692;28;20287;-80
2023/10/23 10:28:39;;;;;;;3.78;2.42;;;20.10;50.60;;;;;;5037640;28;20303;-80
2023/10/23 10:31:06;;;;;;;3.25;2.50;;;20.20;50.70;;;;;;5036820;28;20227;-80
2023/10/23 10:33:33;;;;;;;5.72;2.50;;;20.20;50.50;;;;;;5036168;28;20203;-80
2023/10/23 10:36:03;;;;;;;3.45;2.50;;;20.20;50.40;;;;;;5035644;28;20200;-80
2023/10/23 10:38:32;;;;;;;2.90;2.60;;;20.20;50.40;;;;;;5035475;28;20648;-80
2023/10/23 10:41:00;;;;;;;3.33;2.90;;;20.20;50.40;;;;;;5035455;28;20223;-80
2023/10/23 10:43:29;;;;;;;4.43;2.72;;;20.30;50.40;;;;;;5035351;28;20193;-81
2023/10/23 10:45:56;;;;;;;4.30;2.80;;;20.30;50.50;;;;;;5035739;28;20196;-80
2023/10/23 10:48:25;;;;;;;3.55;2.72;;;20.30;50.50;;;;;;5035574;28;20361;-80
2023/10/23 10:50:53;;;;;;;3.85;2.90;;;20.30;50.50;;;;;;5034875;28;20266;-80
2023/10/23 10:53:22;;;;;;;2.65;2.40;;;20.30;50.50;;;;;;5035674;28;20195;-80
2023/10/23 10:55:50;;;;;;;3.17;2.80;;;20.30;50.50;;;;;;5036603;28;20199;-80
2023/10/23 10:58:17;;;;;;;3.42;2.70;;;20.30;50.50;;;;;;5036060;28;20184;-80
2023/10/23 11:00:45;;;;;;;3.45;2.90;;;20.30;50.40;;;;;;5035465;28;20258;-80
2023/10/23 11:03:12;;;;;;;3.45;3.08;;;20.20;50.30;;;;;;5035298;28;20241;-80
2023/10/23 11:05:44;;;;;;;3.08;2.72;;;20.30;50.40;;;;;;5035471;28;20574;-80
2023/10/23 11:08:11;;;;;;;3.95;3.00;;;20.30;50.40;;;;;;5035116;28;20234;-81
2023/10/23 11:10:38;;;;;;;3.42;2.75;;;20.30;50.30;;;;;;5018228;28;20250;-80
2023/10/23 11:13:07;;;;;;;4.18;2.83;;;20.30;50.40;;;;;;5034891;28;20200;-80
2023/10/23 11:15:34;;;;;;;4.72;2.75;;;20.30;50.40;;;;;;5036407;28;20216;-80
2023/10/23 11:18:01;;;;;;;4.22;3.10;;;20.30;50.40;;;;;;5035629;28;20539;-80
2023/10/23 11:20:31;;;;;;;4.25;3.15;;;20.30;50.40;;;;;;5035857;28;20274;-80
2023/10/23 11:22:57;;;;;;;4.05;2.80;;;20.30;50.50;;;;;;5035591;28;20188;-80
2023/10/23 11:25:24;;;;;;;4.50;3.25;;;20.30;50.50;;;;;;5034917;28;20234;-80
2023/10/23 11:27:55;;;;;;;4.60;3.13;;;20.30;50.50;;;;;;5034613;28;20212;-80
2023/10/23 11:30:26;;;;;;;3.88;2.90;;;20.40;50.50;;;;;;5034710;28;20255;-80
2023/10/23 11:32:53;;;;;;;3.50;3.08;;;20.40;50.40;;;;;;5035388;28;20200;-80
2023/10/23 11:35:20;;;;;;;3.30;3.00;;;20.40;50.40;;;;;;5035201;28;20574;-80
2023/10/23 11:37:48;;;;;;;4.50;2.90;;;20.40;50.30;;;;;;5017809;28;20226;-80
2023/10/23 11:40:20;;;;;;;4.10;3.10;;;20.40;50.40;;;;;;5035118;28;20243;-80
2023/10/23 11:42:48;;;;;;;3.15;2.85;;;20.40;50.30;;;;;;5034651;28;20243;-80
2023/10/23 11:45:17;;;;;;;3.78;2.80;;;20.50;50.30;;;;;;5035362;28;20191;-80
2023/10/23 11:47:45;;;;;;;3.30;2.67;;;20.50;50.30;;;;;;5036196;28;20212;-80
2023/10/23 11:50:13;;;;;;;4.15;3.00;;;20.50;50.10;;;;;;5034556;28;20270;-80
2023/10/23 11:52:44;;;;;;;5.80;2.78;;;20.60;50.20;;;;;;5034910;28;20738;-80
2023/10/23 11:55:12;;;;;;;2.88;2.55;;;20.60;50.10;;;;;;5036634;28;20200;-80
2023/10/23 11:57:41;;;;;;;2.60;2.38;;;20.60;50.00;;;;;;5034821;28;20196;-80
2023/10/23 12:00:12;;;;;;;3.40;3.10;;;20.60;50.00;;;;;;5035407;28;20311;-80
2023/10/23 12:02:41;;;;;;;4.47;2.80;;;20.60;50.00;;;;;;5034030;28;20606;-80
2023/10/23 12:05:12;;;;;;;2.85;2.50;;;20.60;50.00;;;;;;5017739;28;20555;-80
2023/10/23 12:07:40;;;;;;;3.50;2.72;;;20.60;50.00;;;;;;5033964;28;20223;-80
2023/10/23 12:10:08;;;;;;;2.83;2.38;;;20.70;50.10;;;;;;5034164;28;20683;-80
2023/10/23 12:12:36;;;;;;;3.53;2.70;;;20.60;50.00;;;;;;5018507;28;20246;-80
2023/10/23 12:15:05;;;;;;;3.65;2.85;;;20.70;50.10;;;;;;5034390;28;20295;-80
2023/10/23 12:17:33;;;;;;;4.90;2.65;;;20.60;50.10;;;;;;5017862;28;20187;-80
2023/10/23 12:19:59;;;;;;;3.38;2.63;;;20.60;50.10;;;;;;5017627;28;20212;-80
2023/10/23 12:22:28;;;;;;;4.90;3.03;;;20.60;50.20;;;;;;5034620;28;20204;-80
2023/10/23 12:24:55;;;;;;;3.47;2.80;;;20.60;50.30;;;;;;5034153;28;20338;-80
2023/10/23 12:27:22;;;;;;;3.72;3.10;;;20.60;50.40;;;;;;5034612;28;20212;-80
2023/10/23 12:29:49;;;;;;;3.30;2.60;;;20.60;50.40;;;;;;5034968;28;20255;-80
2023/10/23 12:32:16;;;;;;;3.40;2.88;;;20.60;50.40;;;;;;5033776;28;20204;-80
2023/10/23 12:34:43;;;;;;;4.05;2.88;;;20.60;50.50;;;;;;5033655;28;20207;-80
2023/10/23 12:37:10;;;;;;;3.95;2.72;;;20.60;50.40;;;;;;5033906;28;20344;-80
2023/10/23 12:39:38;;;;;;;3.15;2.42;;;20.60;50.60;;;;;;5033762;28;20277;-80
2023/10/23 12:42:06;;;;;;;3.60;3.10;;;20.60;50.70;;;;;;5034284;28;20291;-80
2023/10/23 12:44:33;;;;;;;6.38;4.07;;;20.60;50.70;;;;;;5033809;28;20184;-80
2023/10/23 12:47:00;;;;;;;3.13;2.83;;;20.60;50.70;;;;;;5030116;28;20230;-80
2023/10/23 12:49:27;;;;;;;3.30;2.90;;;20.60;50.60;;;;;;5051642;28;20314;-79